Time;durP1;ratioP1;P1;durP2;ratioP2;P2;SDS_P1;SDS_P2;PMS_P1;PMS_P2;Temp;Humidity;BMP_temperature;BMP_pressure;BME280_temperature;BME280_humidity;BME280_pressure;Samples;Min_cycle;Max_cycle;Signal;HPM_P1;HPM_P2
2023/03/27 00:01:19;;;;;;;1999.90;999.90;;;;;;;5.73;100.00;93775.66;5087192;28;20164;-58
2023/03/27 00:03:48;;;;;;;1999.90;999.90;;;;;;;5.69;100.00;93775.69;5087777;28;20218;-58
2023/03/27 00:06:17;;;;;;;1999.90;999.90;;;;;;;5.71;100.00;93764.44;5087715;28;20206;-59
2023/03/27 00:08:49;;;;;;;1999.90;999.90;;;;;;;5.70;100.00;93768.34;5087847;28;20167;-58
2023/03/27 00:11:14;;;;;;;1999.90;999.90;;;;;;;5.68;100.00;93771.47;5087037;28;20191;-58
2023/03/27 00:13:43;;;;;;;1999.90;999.90;;;;;;;5.72;100.00;93766.00;5086862;28;20209;-58
2023/03/27 00:16:09;;;;;;;1999.90;999.90;;;;;;;5.70;100.00;93757.50;5087575;28;20165;-58
2023/03/27 00:18:35;;;;;;;1999.90;999.90;;;;;;;5.71;100.00;93759.03;5087418;28;20170;-58
2023/03/27 00:21:02;;;;;;;1999.90;999.90;;;;;;;5.68;100.00;93755.22;5086944;28;20169;-59
2023/03/27 00:23:28;;;;;;;1999.90;999.90;;;;;;;5.68;100.00;93754.47;5086768;28;20230;-58
2023/03/27 00:25:56;;;;;;;1999.90;999.90;;;;;;;5.65;100.00;93744.44;5086877;28;20171;-58
2023/03/27 00:28:23;;;;;;;1999.90;999.90;;;;;;;5.61;100.00;93749.91;5086555;28;20284;-58
2023/03/27 00:30:52;;;;;;;1999.90;999.90;;;;;;;5.60;100.00;93748.38;5086780;28;20248;-58
2023/03/27 00:33:17;;;;;;;1999.90;999.90;;;;;;;5.54;100.00;93747.31;5086979;28;20164;-58
2023/03/27 00:35:47;;;;;;;1999.90;999.90;;;;;;;5.54;100.00;93738.44;5086403;28;20164;-58
2023/03/27 00:38:14;;;;;;;1999.90;999.90;;;;;;;5.52;100.00;93729.97;5086238;28;20179;-59
2023/03/27 00:40:40;;;;;;;1999.90;999.90;;;;;;;5.55;100.00;93732.63;5086763;28;20196;-58
2023/03/27 00:43:44;;;;;;;1999.90;999.90;;;;;;;5.56;100.00;93727.97;5086437;28;20163;-58
2023/03/27 00:46:37;;;;;;;1999.90;999.90;;;;;;;5.60;100.00;93731.38;5029662;28;20165;-58
2023/03/27 00:49:07;;;;;;;1999.90;999.90;;;;;;;5.65;100.00;93722.78;5029504;28;20164;-58
2023/03/27 00:51:35;;;;;;;1999.90;999.90;;;;;;;5.69;100.00;93729.66;5067096;28;20187;-58
2023/03/27 00:54:01;;;;;;;1999.90;999.90;;;;;;;5.69;100.00;93728.91;5086242;28;20206;-58
2023/03/27 00:56:26;;;;;;;1999.90;999.90;;;;;;;5.76;100.00;93723.38;5086240;28;20241;-58
2023/03/27 00:58:57;;;;;;;1999.90;999.90;;;;;;;5.81;100.00;93736.47;5086138;28;20175;-58
2023/03/27 01:01:26;;;;;;;1999.90;999.90;;;;;;;5.83;100.00;93729.44;5086676;28;20171;-59
2023/03/27 01:03:52;;;;;;;1999.90;999.90;;;;;;;5.88;100.00;93745.25;5086602;28;20177;-58
2023/03/27 01:06:19;;;;;;;1999.90;999.90;;;;;;;5.88;100.00;93739.06;5086135;28;20171;-59
2023/03/27 01:08:45;;;;;;;1999.90;999.90;;;;;;;5.90;100.00;93744.84;5086288;28;20247;-58
2023/03/27 01:11:30;;;;;;;1999.90;999.90;;;;;;;5.95;100.00;93749.75;5085955;28;20175;-58
2023/03/27 01:14:22;;;;;;;1999.90;999.90;;;;;;;5.93;100.00;93738.56;5086436;28;20185;-58
2023/03/27 01:17:01;;;;;;;1999.90;999.90;;;;;;;5.95;100.00;93733.50;5086536;28;20156;-58
2023/03/27 01:19:44;;;;;;;1999.90;999.90;;;;;;;5.95;100.00;93717.25;5085850;28;20160;-58
2023/03/27 01:22:44;;;;;;;1999.90;999.90;;;;;;;5.91;100.00;93692.94;5086339;28;20187;-58
2023/03/27 01:25:29;;;;;;;1999.90;999.90;;;;;;;5.85;100.00;93677.59;5086303;28;20247;-59
2023/03/27 01:28:01;;;;;;;1999.90;999.90;;;;;;;5.83;100.00;93650.16;5085617;28;20174;-58
2023/03/27 01:30:30;;;;;;;1999.90;999.90;;;;;;;5.86;100.00;93616.81;5086558;28;20168;-58
2023/03/27 01:33:04;;;;;;;1999.90;999.90;;;;;;;5.82;100.00;93597.16;5086034;28;20171;-58
2023/03/27 01:35:55;;;;;;;1999.90;999.90;;;;;;;5.83;100.00;93518.22;5085477;28;20198;-58
2023/03/27 01:39:04;;;;;;;1999.90;999.90;;;;;;;5.83;100.00;93480.31;5085948;28;20231;-59
2023/03/27 01:41:39;;;;;;;1999.90;999.90;;;;;;;5.79;100.00;93452.50;5054853;28;20184;-58
2023/03/27 01:44:25;;;;;;;1999.90;999.90;;;;;;;5.74;100.00;93438.69;5085859;28;20365;-58
2023/03/27 01:46:59;;;;;;;1999.90;999.90;;;;;;;5.72;100.00;93422.13;5085430;28;20171;-58
2023/03/27 01:49:35;;;;;;;1999.90;999.90;;;;;;;5.69;100.00;93412.13;5085804;28;20172;-59
2023/03/27 01:52:07;;;;;;;1999.90;999.90;;;;;;;5.63;100.00;93509.34;5085798;28;20196;-58
2023/03/27 01:54:40;;;;;;;1999.90;999.90;;;;;;;5.57;100.00;93500.16;5085499;28;20202;-59
2023/03/27 01:57:29;;;;;;;1999.90;999.90;;;;;;;5.57;100.00;93489.34;5085164;28;20177;-58
2023/03/27 02:00:12;;;;;;;1999.90;999.90;;;;;;;5.52;100.00;93470.13;5085368;28;20162;-58
2023/03/27 02:02:40;;;;;;;1999.90;999.90;;;;;;;5.49;100.00;93450.06;5084766;28;20182;-58
2023/03/27 02:05:15;;;;;;;1999.90;999.90;;;;;;;5.44;100.00;93468.75;5084969;28;20272;-59
2023/03/27 02:07:47;;;;;;;1999.90;999.90;;;;;;;5.47;100.00;93451.66;5085425;28;20164;-58
2023/03/27 02:10:18;;;;;;;1999.90;999.90;;;;;;;5.38;100.00;93437.94;5085400;28;20167;-59
2023/03/27 02:12:55;;;;;;;1999.90;999.90;;;;;;;5.36;100.00;93415.94;5085339;28;20172;-58
2023/03/27 02:15:25;;;;;;;1999.90;999.90;;;;;;;5.35;100.00;93407.06;5085176;28;20192;-59
2023/03/27 02:18:05;;;;;;;1999.90;999.90;;;;;;;5.38;100.00;93395.41;5084650;28;20170;-58
2023/03/27 02:20:32;;;;;;;1999.90;999.90;;;;;;;5.38;100.00;93383.81;5085110;28;20167;-59
2023/03/27 02:22:59;;;;;;;1999.90;999.90;;;;;;;5.44;100.00;93372.09;5084525;28;20168;-59
2023/03/27 02:25:37;;;;;;;1999.90;999.90;;;;;;;5.42;100.00;93357.44;5084588;28;20162;-60
2023/03/27 02:28:09;;;;;;;1999.90;999.90;;;;;;;5.42;100.00;93365.53;5084370;28;20187;-59
2023/03/27 02:31:00;;;;;;;1999.90;999.90;;;;;;;5.50;100.00;93356.09;5084932;28;20191;-58
2023/03/27 02:33:41;;;;;;;1999.90;999.90;;;;;;;5.52;100.00;93367.25;5084951;28;20184;-58
2023/03/27 02:36:12;;;;;;;1999.90;999.90;;;;;;;5.54;100.00;93364.91;5085202;28;20173;-58
2023/03/27 02:38:44;;;;;;;1999.90;999.90;;;;;;;5.50;100.00;93370.38;5084928;28;20250;-58
2023/03/27 02:41:27;;;;;;;1999.90;999.90;;;;;;;5.49;100.00;93373.50;5084749;28;20197;-60
2023/03/27 02:44:05;;;;;;;1999.90;999.90;;;;;;;5.49;100.00;93358.03;5084791;28;20175;-59
2023/03/27 02:46:54;;;;;;;1999.90;999.90;;;;;;;5.42;100.00;93354.72;5084748;28;20171;-58
2023/03/27 02:49:27;;;;;;;1999.90;999.90;;;;;;;5.41;100.00;93355.91;5084392;28;20213;-58
2023/03/27 02:52:01;;;;;;;1999.90;999.90;;;;;;;5.39;100.00;93355.59;5084736;28;20243;-58
2023/03/27 02:54:35;;;;;;;1999.90;999.90;;;;;;;5.40;100.00;93359.81;5084562;28;20224;-58
2023/03/27 02:57:07;;;;;;;1999.90;999.90;;;;;;;5.40;100.00;93354.41;5084589;28;20179;-58
2023/03/27 02:59:43;;;;;;;1999.90;999.90;;;;;;;5.24;100.00;93370.59;5084298;28;20176;-58
2023/03/27 03:02:15;;;;;;;1999.90;999.90;;;;;;;5.25;100.00;93364.00;5084560;28;20261;-58
2023/03/27 03:04:46;;;;;;;1999.90;999.90;;;;;;;5.28;100.00;93357.75;5084480;28;20266;-58
2023/03/27 03:07:13;;;;;;;1999.90;999.90;;;;;;;5.32;100.00;93361.16;5084349;28;20229;-59
2023/03/27 03:09:39;;;;;;;1999.90;999.90;;;;;;;5.27;100.00;93340.75;5083893;28;20179;-58
2023/03/27 03:12:05;;;;;;;1999.90;999.90;;;;;;;5.17;100.00;93330.16;5083714;28;20169;-59
2023/03/27 03:14:37;;;;;;;1999.90;999.90;;;;;;;5.18;100.00;93321.63;5083854;28;20208;-59
2023/03/27 03:17:02;;;;;;;1999.90;999.90;;;;;;;5.15;100.00;93327.09;5083816;28;20172;-58
2023/03/27 03:19:28;;;;;;;1999.90;999.90;;;;;;;5.10;100.00;93322.94;5083777;28;20246;-59
2023/03/27 03:21:53;;;;;;;1999.90;999.90;;;;;;;5.03;100.00;93322.34;5084193;28;20167;-58
2023/03/27 03:24:20;;;;;;;1999.90;999.90;;;;;;;5.04;100.00;93321.16;5083794;28;20250;-58
2023/03/27 03:26:48;;;;;;;1999.90;999.90;;;;;;;5.10;100.00;93297.88;5083658;28;20178;-59
2023/03/27 03:29:14;;;;;;;1999.90;999.90;;;;;;;5.04;100.00;93291.41;5083393;28;20221;-59
2023/03/27 03:31:42;;;;;;;1999.90;999.90;;;;;;;5.06;100.00;93297.91;5083653;28;20185;-59
2023/03/27 03:34:13;;;;;;;1999.90;999.90;;;;;;;5.10;100.00;93287.03;5084027;28;20186;-59
2023/03/27 03:36:40;;;;;;;1999.90;999.90;;;;;;;5.09;100.00;93290.91;5084121;28;20182;-59
2023/03/27 03:39:06;;;;;;;1999.90;999.90;;;;;;;5.07;100.00;93277.81;5083572;28;20175;-60
2023/03/27 03:41:32;;;;;;;1999.90;999.90;;;;;;;5.06;100.00;93280.94;5083513;28;20167;-59
2023/03/27 03:43:57;;;;;;;1999.90;999.90;;;;;;;5.04;100.00;93272.47;5084112;28;20172;-59
2023/03/27 03:46:22;;;;;;;1999.90;999.90;;;;;;;5.03;100.00;93270.97;5083891;28;20214;-59
2023/03/27 03:48:48;;;;;;;1999.90;999.90;;;;;;;4.97;100.00;93261.81;5084104;28;20173;-59
2023/03/27 03:51:13;;;;;;;1999.90;999.90;;;;;;;4.96;100.00;93260.31;5083370;28;20194;-57
2023/03/27 03:53:38;;;;;;;1999.90;999.90;;;;;;;4.88;100.00;93259.69;5083349;28;20202;-58
2023/03/27 03:56:04;;;;;;;1999.90;999.90;;;;;;;4.85;100.00;93251.66;5083704;28;20175;-58
2023/03/27 03:58:30;;;;;;;1999.90;999.90;;;;;;;4.85;100.00;93259.78;5083296;28;20165;-57
2023/03/27 04:00:56;;;;;;;1999.90;999.90;;;;;;;4.80;100.00;93279.94;5082436;28;20211;-57
2023/03/27 04:03:25;;;;;;;1999.90;999.90;;;;;;;4.75;100.00;93277.75;5082906;28;20192;-57
2023/03/27 04:05:51;;;;;;;1999.90;999.90;;;;;;;4.70;100.00;93280.19;5065978;28;20179;-59
2023/03/27 04:08:17;;;;;;;1999.90;999.90;;;;;;;4.62;100.00;93303.88;5066161;28;20237;-58
2023/03/27 04:10:43;;;;;;;1999.90;999.90;;;;;;;4.62;100.00;93295.03;5065983;28;20224;-56
2023/03/27 04:13:09;;;;;;;1999.90;999.90;;;;;;;4.63;100.00;93293.84;5065713;28;20170;-58
2023/03/27 04:15:34;;;;;;;1999.90;999.90;;;;;;;4.54;100.00;93301.72;5065728;28;20222;-57
2023/03/27 04:18:00;;;;;;;1999.90;999.90;;;;;;;4.50;100.00;93282.13;5065702;28;20302;-58
2023/03/27 04:20:25;;;;;;;1999.90;999.90;;;;;;;4.48;100.00;93279.09;5065588;28;20184;-59
2023/03/27 04:22:53;;;;;;;1999.90;999.90;;;;;;;4.46;100.00;93274.09;5065497;28;20175;-58
2023/03/27 04:25:21;;;;;;;1999.90;999.90;;;;;;;4.50;100.00;93265.91;5067355;28;20166;-57
2023/03/27 04:27:50;;;;;;;1999.90;999.90;;;;;;;4.55;100.00;93262.72;5069858;28;20175;-58
2023/03/27 04:30:21;;;;;;;1999.90;999.90;;;;;;;4.60;100.00;93246.00;5069610;28;20308;-58
2023/03/27 04:32:47;;;;;;;1999.90;999.90;;;;;;;4.58;100.00;93257.25;5084470;28;20241;-58
2023/03/27 04:35:14;;;;;;;1999.90;999.90;;;;;;;4.71;100.00;93244.63;5086908;28;20213;-58
2023/03/27 04:37:40;;;;;;;1999.90;999.90;;;;;;;4.73;100.00;93244.22;5086617;28;20166;-58
2023/03/27 04:40:07;;;;;;;1999.90;999.90;;;;;;;4.83;100.00;93252.06;5087294;28;20185;-59
2023/03/27 04:42:32;;;;;;;1999.90;999.90;;;;;;;4.83;100.00;93256.72;5086479;28;20247;-58
2023/03/27 04:44:57;;;;;;;1999.90;999.90;;;;;;;4.90;100.00;93264.69;5086832;28;20159;-58
2023/03/27 04:47:24;;;;;;;1999.90;999.90;;;;;;;4.92;100.00;93265.03;5086507;28;20162;-57
2023/03/27 04:49:50;;;;;;;1999.90;999.90;;;;;;;4.94;100.00;93268.06;5086366;28;20162;-57
2023/03/27 04:52:16;;;;;;;1999.90;999.90;;;;;;;4.94;100.00;93263.44;5086805;28;20162;-58
2023/03/27 04:54:43;;;;;;;1999.90;999.90;;;;;;;4.90;100.00;93278.19;5086585;28;20201;-57
2023/03/27 04:57:10;;;;;;;1999.90;999.90;;;;;;;4.88;100.00;93278.59;5086268;28;20243;-58
2023/03/27 04:59:35;;;;;;;1999.90;999.90;;;;;;;4.77;100.00;93290.84;5086044;28;20167;-57
2023/03/27 05:02:02;;;;;;;1999.90;999.90;;;;;;;4.78;100.00;93281.53;5085969;28;20167;-57
2023/03/27 05:04:29;;;;;;;1999.90;999.90;;;;;;;4.74;100.00;93297.09;5086267;28;20197;-57
2023/03/27 05:06:56;;;;;;;1999.90;999.90;;;;;;;4.75;100.00;93304.00;5086107;28;20163;-57
2023/03/27 05:09:21;;;;;;;1999.90;999.90;;;;;;;4.73;100.00;93330.69;5085843;28;20163;-58
2023/03/27 05:11:51;;;;;;;1999.90;999.90;;;;;;;4.80;100.00;93325.13;5085791;28;20174;-58
2023/03/27 05:14:18;;;;;;;1999.90;999.90;;;;;;;4.74;100.00;93329.53;5086227;28;20213;-58
2023/03/27 05:16:43;;;;;;;1999.90;999.90;;;;;;;4.84;100.00;93350.19;5085733;28;20167;-58
2023/03/27 05:19:10;;;;;;;1999.90;999.90;;;;;;;4.76;100.00;93354.19;5085885;28;20204;-58
2023/03/27 05:21:36;;;;;;;1999.90;999.90;;;;;;;4.66;100.00;93355.16;5086161;28;20216;-58
2023/03/27 05:24:01;;;;;;;1999.90;999.90;;;;;;;4.65;100.00;93370.59;5086105;28;20166;-56
2023/03/27 05:26:26;;;;;;;1999.90;999.90;;;;;;;4.71;100.00;93365.47;5086057;28;20162;-58
2023/03/27 05:28:54;;;;;;;1999.90;999.90;;;;;;;4.63;100.00;93383.03;5085647;28;20218;-56
2023/03/27 05:31:21;;;;;;;1999.90;999.90;;;;;;;4.61;100.00;93390.75;5085791;28;20233;-53
2023/03/27 05:33:47;;;;;;;1999.90;999.90;;;;;;;4.57;100.00;93404.34;5085237;28;20218;-58
2023/03/27 05:36:14;;;;;;;1999.90;999.90;;;;;;;4.61;100.00;93412.38;5083922;28;20170;-58
2023/03/27 05:38:40;;;;;;;1999.90;999.90;;;;;;;4.61;100.00;93417.78;5085283;28;20170;-58
2023/03/27 05:41:06;;;;;;;1999.90;999.90;;;;;;;4.56;100.00;93431.78;5085658;28;20212;-57
2023/03/27 05:43:31;;;;;;;1999.90;999.90;;;;;;;4.56;100.00;93429.84;5084946;28;20245;-58
2023/03/27 05:45:57;;;;;;;1999.90;999.90;;;;;;;4.60;100.00;93441.38;5085338;28;20170;-58
2023/03/27 05:48:22;;;;;;;1999.90;999.90;;;;;;;4.59;100.00;93452.59;5084942;28;20170;-58
2023/03/27 05:50:47;;;;;;;1999.90;999.90;;;;;;;4.53;100.00;93456.94;5085035;28;20169;-58
2023/03/27 05:53:14;;;;;;;1999.90;999.90;;;;;;;4.46;100.00;93475.97;5085094;28;20237;-60
2023/03/27 05:55:39;;;;;;;1999.90;999.90;;;;;;;4.41;100.00;93484.53;5084720;28;20190;-58
2023/03/27 05:58:08;;;;;;;1999.90;999.90;;;;;;;4.43;100.00;93492.97;5085324;28;20166;-58
2023/03/27 06:00:35;;;;;;;1999.90;999.90;;;;;;;4.40;100.00;93499.22;5084884;28;20172;-56
2023/03/27 06:03:02;;;;;;;1999.90;999.90;;;;;;;4.36;100.00;93498.50;5084796;28;20182;-58
2023/03/27 06:05:28;;;;;;;1999.90;999.90;;;;;;;4.30;100.00;93506.31;5084747;28;20177;-58
2023/03/27 06:07:57;;;;;;;1999.90;999.90;;;;;;;4.33;100.00;93523.66;5084444;28;20171;-59
2023/03/27 06:10:24;;;;;;;1999.90;999.90;;;;;;;4.38;100.00;93523.19;5085135;28;20170;-57
2023/03/27 06:13:00;;;;;;;1999.90;999.90;;;;;;;4.38;100.00;93528.59;5085022;28;20174;-59
2023/03/27 06:15:26;;;;;;;1999.90;999.90;;;;;;;4.39;100.00;93551.72;5084403;28;20223;-57
2023/03/27 06:17:51;;;;;;;1999.90;999.90;;;;;;;4.33;100.00;93558.78;5084647;28;20170;-59
2023/03/27 06:20:18;;;;;;;1999.90;999.90;;;;;;;4.27;100.00;93571.19;5084849;28;20162;-54
2023/03/27 06:22:52;;;;;;;1999.90;999.90;;;;;;;4.30;100.00;93586.59;5084273;28;20193;-57
2023/03/27 06:25:19;;;;;;;1999.90;999.90;;;;;;;4.33;100.00;93591.94;5084283;28;20165;-57
2023/03/27 06:27:46;;;;;;;1999.90;999.90;;;;;;;4.07;100.00;93605.44;5084475;28;20178;-55
2023/03/27 06:30:13;;;;;;;1999.90;999.90;;;;;;;4.19;100.00;93613.75;5084074;28;20213;-57
2023/03/27 06:32:48;;;;;;;1999.90;999.90;;;;;;;4.31;100.00;93617.84;5084838;28;20240;-57
2023/03/27 06:35:14;;;;;;;1999.90;999.90;;;;;;;4.31;100.00;93625.94;5084885;28;20246;-57
2023/03/27 06:37:47;;;;;;;1999.90;999.90;;;;;;;4.16;100.00;93643.50;5084170;28;20173;-57
2023/03/27 06:40:23;;;;;;;1999.90;999.90;;;;;;;4.08;100.00;93663.66;5084346;28;20185;-56
2023/03/27 06:42:53;;;;;;;1999.90;999.90;;;;;;;4.13;100.00;93668.63;5084527;28;20169;-58
2023/03/27 06:45:21;;;;;;;1999.90;999.90;;;;;;;4.11;100.00;93681.78;5084288;28;20236;-57
2023/03/27 06:47:55;;;;;;;1999.90;999.90;;;;;;;4.02;100.00;93684.19;5083717;28;20171;-57
2023/03/27 06:50:22;;;;;;;1999.90;999.90;;;;;;;3.96;100.00;93697.34;5083957;28;20165;-56
2023/03/27 06:52:47;;;;;;;1999.90;999.90;;;;;;;3.92;100.00;93714.75;5083986;28;20174;-57
2023/03/27 06:55:15;;;;;;;1999.90;999.90;;;;;;;3.82;100.00;93735.28;5083916;28;20213;-56
2023/03/27 06:57:43;;;;;;;1999.90;999.90;;;;;;;3.75;100.00;93740.75;5084615;28;20173;-57
2023/03/27 07:00:17;;;;;;;1999.90;999.90;;;;;;;3.77;100.00;93749.22;5083958;28;20197;-58
2023/03/27 07:02:45;;;;;;;1999.90;999.90;;;;;;;3.69;100.00;93763.97;5084436;28;20175;-56
2023/03/27 07:05:10;;;;;;;1999.90;999.90;;;;;;;3.79;100.00;93765.03;5083787;28;20166;-57
2023/03/27 07:07:35;;;;;;;1999.90;999.90;;;;;;;3.70;100.00;93770.88;5083650;28;20240;-57
2023/03/27 07:10:01;;;;;;;1999.90;999.90;;;;;;;3.71;100.00;93777.81;5084114;28;20167;-57
2023/03/27 07:12:26;;;;;;;1999.90;999.90;;;;;;;3.75;100.00;93788.59;5084201;28;20200;-57
2023/03/27 07:14:52;;;;;;;1999.90;999.90;;;;;;;3.73;100.00;93796.31;5083671;28;20270;-56
2023/03/27 07:17:17;;;;;;;1999.90;999.90;;;;;;;3.69;100.00;93801.75;5083651;28;20215;-58
2023/03/27 07:19:43;;;;;;;1999.90;999.90;;;;;;;3.70;100.00;93808.66;5084278;28;20180;-54
2023/03/27 07:22:08;;;;;;;1999.90;999.90;;;;;;;3.70;100.00;93813.28;5083742;28;20175;-57
2023/03/27 07:24:33;;;;;;;1999.90;999.90;;;;;;;3.72;100.00;93816.38;5083847;28;20499;-59
2023/03/27 07:26:59;;;;;;;1999.90;999.90;;;;;;;3.71;100.00;93825.63;5083679;28;20240;-58
2023/03/27 07:29:25;;;;;;;1999.90;999.90;;;;;;;3.64;100.00;93833.78;5083810;28;20281;-58
2023/03/27 07:31:50;;;;;;;1999.90;999.90;;;;;;;3.58;100.00;93838.06;5083832;28;20244;-59
2023/03/27 07:34:16;;;;;;;1999.90;999.90;;;;;;;3.68;100.00;93842.63;5083653;28;20216;-59
2023/03/27 07:36:42;;;;;;;1999.90;999.90;;;;;;;3.65;100.00;93863.06;5084198;28;20180;-58
2023/03/27 07:39:08;;;;;;;1999.90;999.90;;;;;;;3.60;100.00;93873.53;5083639;28;20169;-58
2023/03/27 07:41:33;;;;;;;1999.90;999.90;;;;;;;3.53;100.00;93875.09;5083495;28;20179;-58
2023/03/27 07:43:59;;;;;;;1999.90;999.90;;;;;;;3.45;100.00;93884.41;5083825;28;20201;-57
2023/03/27 07:46:25;;;;;;;1999.90;999.90;;;;;;;3.37;100.00;93896.41;5083436;28;20169;-57
2023/03/27 07:48:50;;;;;;;1999.90;999.90;;;;;;;3.42;100.00;93906.00;5083948;28;20176;-58
2023/03/27 07:51:16;;;;;;;1999.90;999.90;;;;;;;3.54;100.00;93906.31;5083426;28;20240;-59
2023/03/27 07:53:42;;;;;;;1999.90;999.90;;;;;;;3.44;100.00;93915.25;5083409;28;20224;-57
2023/03/27 07:56:08;;;;;;;1999.90;999.90;;;;;;;3.39;100.00;93926.44;5083848;28;20180;-58
2023/03/27 07:58:33;;;;;;;1999.90;999.90;;;;;;;3.32;100.00;93939.94;5083128;28;20208;-58
2023/03/27 08:01:00;;;;;;;1999.90;999.90;;;;;;;3.32;100.00;93928.41;5086391;28;20187;-56
2023/03/27 08:03:29;;;;;;;1999.90;999.90;;;;;;;3.30;100.00;93947.69;5087233;28;20232;-58
2023/03/27 08:05:57;;;;;;;1999.90;999.90;;;;;;;3.24;100.00;93954.63;5087114;28;20179;-58
2023/03/27 08:08:24;;;;;;;1999.90;999.90;;;;;;;3.29;100.00;93958.88;5087694;28;20174;-57
2023/03/27 08:10:52;;;;;;;1999.90;999.90;;;;;;;3.26;100.00;93952.34;5087080;28;20169;-57
2023/03/27 08:13:18;;;;;;;1999.90;999.90;;;;;;;3.27;100.00;93972.72;5086985;28;20211;-58
2023/03/27 08:15:43;;;;;;;1999.90;999.90;;;;;;;3.27;100.00;93986.22;5087405;28;20197;-57
2023/03/27 08:18:10;;;;;;;1999.90;999.90;;;;;;;3.23;100.00;93982.78;5087007;28;20215;-58
2023/03/27 08:20:36;;;;;;;1999.90;999.90;;;;;;;3.38;100.00;93986.94;5087284;28;20177;-58
2023/03/27 08:23:02;;;;;;;1999.90;999.90;;;;;;;3.58;100.00;93986.47;5087127;28;20170;-57
2023/03/27 08:25:28;;;;;;;1999.90;999.90;;;;;;;3.71;100.00;93965.97;5086823;28;20169;-57
2023/03/27 08:27:54;;;;;;;1999.90;999.90;;;;;;;3.81;100.00;93981.31;5087230;28;20206;-58
2023/03/27 08:30:22;;;;;;;1999.90;999.90;;;;;;;4.04;100.00;93993.13;5086593;28;20221;-58
2023/03/27 08:32:47;;;;;;;1999.90;999.90;;;;;;;4.38;100.00;93996.00;5086694;28;20172;-58
2023/03/27 08:35:13;;;;;;;1999.90;999.90;;;;;;;4.35;100.00;94000.25;5087065;28;20201;-58
2023/03/27 08:37:40;;;;;;;1999.90;999.90;;;;;;;4.32;100.00;94024.59;5086480;28;20166;-58
2023/03/27 08:40:12;;;;;;;1999.90;999.90;;;;;;;4.28;100.00;94037.34;5086346;28;20166;-58
2023/03/27 08:42:41;;;;;;;1999.90;999.90;;;;;;;4.23;100.00;94051.28;5086973;28;20238;-57
2023/03/27 08:45:15;;;;;;;1999.90;999.90;;;;;;;4.41;100.00;94054.66;5086569;28;20177;-58
2023/03/27 08:47:49;;;;;;;1999.90;999.90;;;;;;;4.32;100.00;94081.31;5086750;28;20176;-57
2023/03/27 08:50:27;;;;;;;1999.90;999.90;;;;;;;4.41;100.00;94095.94;5087220;28;20181;-58
2023/03/27 08:52:52;;;;;;;1999.90;999.90;;;;;;;4.48;100.00;94105.94;5086462;28;20232;-58
2023/03/27 08:55:37;;;;;;;1999.90;999.90;;;;;;;4.30;100.00;94124.19;5086195;28;20201;-58
2023/03/27 08:58:02;;;;;;;1999.90;999.90;;;;;;;4.24;100.00;94147.38;5086719;28;20162;-58
2023/03/27 09:00:38;;;;;;;1999.90;999.90;;;;;;;4.15;100.00;94169.41;5086152;28;20236;-58
2023/03/27 09:03:18;;;;;;;1999.90;999.90;;;;;;;4.08;100.00;94174.06;5086800;28;20184;-58
2023/03/27 09:05:57;;;;;;;1999.90;999.90;;;;;;;3.92;100.00;94179.13;5086711;28;20163;-58
2023/03/27 09:08:41;;;;;;;1999.90;999.90;;;;;;;3.81;100.00;94187.25;5086589;28;20186;-56
2023/03/27 09:11:34;;;;;;;1999.90;999.90;;;;;;;3.79;100.00;94202.31;5086485;28;20162;-58
2023/03/27 09:14:11;;;;;;;1999.90;999.90;;;;;;;3.72;100.00;94218.53;5085780;28;20220;-57
2023/03/27 09:16:48;;;;;;;1999.90;999.90;;;;;;;3.75;100.00;94209.66;5086196;28;20179;-58
2023/03/27 09:19:36;;;;;;;1999.90;999.90;;;;;;;3.85;100.00;94214.28;5086331;28;20165;-57
2023/03/27 09:22:17;;;;;;;1999.90;999.90;;;;;;;3.88;100.00;94218.88;5086452;28;20167;-58
2023/03/27 09:24:47;;;;;;;1999.90;999.90;;;;;;;3.90;100.00;94230.06;5086284;28;20173;-58
2023/03/27 09:27:23;;;;;;;1999.90;999.90;;;;;;;3.82;100.00;94236.63;5085778;28;20455;-58
2023/03/27 09:29:58;;;;;;;1999.90;999.90;;;;;;;3.81;100.00;94248.56;5085732;28;20236;-57
2023/03/27 09:32:25;;;;;;;1999.90;999.90;;;;;;;3.86;100.00;94250.91;5085639;28;20206;-58
2023/03/27 09:34:50;;;;;;;1999.90;999.90;;;;;;;3.90;100.00;94259.75;5085500;28;20197;-58
2023/03/27 09:37:16;;;;;;;1999.90;999.90;;;;;;;4.00;100.00;94273.22;5085494;28;20196;-57
2023/03/27 09:39:47;;;;;;;1999.90;999.90;;;;;;;4.01;100.00;94279.41;5085817;28;20169;-58
2023/03/27 09:42:18;;;;;;;1999.90;999.90;;;;;;;3.94;100.00;94282.13;5086036;28;20454;-58
2023/03/27 09:44:49;;;;;;;1999.90;999.90;;;;;;;4.01;100.00;94299.09;5085846;28;20166;-59
2023/03/27 09:47:41;;;;;;;1999.90;999.90;;;;;;;4.15;100.00;94298.31;5085718;28;20170;-59
2023/03/27 09:50:18;;;;;;;1999.90;999.90;;;;;;;4.18;100.00;94319.13;5083139;28;20193;-59
2023/03/27 09:52:43;;;;;;;1999.90;999.90;;;;;;;4.28;100.00;94337.22;5085199;28;20178;-59
2023/03/27 09:55:29;;;;;;;1999.90;999.90;;;;;;;4.42;100.00;94340.69;5085154;28;20213;-59
2023/03/27 09:58:19;;;;;;;1999.90;999.90;;;;;;;4.36;100.00;94363.06;5085564;28;20291;-59
2023/03/27 10:00:45;;;;;;;1999.90;999.90;;;;;;;4.32;100.00;94405.53;5077092;28;20177;-59
2023/03/27 10:03:18;;;;;;;1999.90;999.90;;;;;;;4.33;100.00;94431.44;5085603;28;20231;-59
2023/03/27 10:05:45;;;;;;;1999.90;999.90;;;;;;;4.51;100.00;94443.75;5084929;28;20170;-59
2023/03/27 10:08:29;;;;;;;1999.90;999.90;;;;;;;4.64;100.00;94466.53;5084750;28;20237;-59
2023/03/27 10:10:56;;;;;;;1999.90;999.90;;;;;;;4.61;100.00;94504.38;5085431;28;20182;-59
2023/03/27 10:13:26;;;;;;;1999.90;999.90;;;;;;;4.77;100.00;94556.16;5084907;28;20167;-58
2023/03/27 10:16:03;;;;;;;1999.90;999.90;;;;;;;4.94;100.00;94576.97;5085079;28;20265;-58
2023/03/27 10:18:31;;;;;;;1999.90;999.90;;;;;;;5.07;100.00;94619.47;5085128;28;20171;-59
2023/03/27 10:21:07;;;;;;;1999.90;999.90;;;;;;;5.19;100.00;94669.75;5084694;28;20171;-58
2023/03/27 10:23:41;;;;;;;1999.90;999.90;;;;;;;5.28;100.00;94721.56;5084609;28;20167;-58
2023/03/27 10:26:10;;;;;;;1999.90;999.90;;;;;;;5.45;100.00;94774.94;5084599;28;20239;-57
2023/03/27 10:28:37;;;;;;;1999.90;999.90;;;;;;;5.57;100.00;94815.19;5084240;28;20261;-57
2023/03/27 10:31:09;;;;;;;1999.90;999.90;;;;;;;5.54;100.00;94856.56;5085194;28;20172;-57
2023/03/27 10:33:40;;;;;;;1999.90;999.90;;;;;;;5.70;100.00;94905.72;5084729;28;20171;-57
2023/03/27 10:36:08;;;;;;;1999.90;999.90;;;;;;;5.71;100.00;94918.09;5084361;28;20218;-57
2023/03/27 10:38:36;;;;;;;1999.90;999.90;;;;;;;5.64;100.00;94961.41;5084747;28;20177;-57
2023/03/27 10:41:12;;;;;;;1999.90;999.90;;;;;;;5.80;100.00;94964.56;5084718;28;20179;-57
2023/03/27 10:43:47;;;;;;;1999.90;999.90;;;;;;;5.56;100.00;95011.28;5084461;28;20175;-59
2023/03/27 10:46:17;;;;;;;1999.90;999.90;;;;;;;5.62;100.00;95023.31;5084901;28;20245;-59
2023/03/27 10:48:52;;;;;;;1999.90;999.90;;;;;;;5.68;100.00;95038.06;5084348;28;20172;-58
2023/03/27 10:51:31;;;;;;;1999.90;999.90;;;;;;;5.96;100.00;95046.31;5084162;28;20171;-58
2023/03/27 10:54:04;;;;;;;1999.90;999.90;;;;;;;5.97;100.00;95064.13;5083938;28;20203;-58
2023/03/27 10:56:53;;;;;;;1999.90;999.90;;;;;;;6.00;100.00;95068.78;5084394;28;20175;-59
2023/03/27 10:59:28;;;;;;;1999.90;999.90;;;;;;;6.07;100.00;95093.19;5055058;28;20203;-58
2023/03/27 11:02:00;;;;;;;1999.90;999.90;;;;;;;6.31;100.00;95106.06;5084501;28;20172;-58
2023/03/27 11:05:01;;;;;;;1999.90;999.90;;;;;;;6.38;100.00;95125.09;5084301;28;20176;-58
2023/03/27 11:07:36;;;;;;;1999.90;999.90;;;;;;;6.57;100.00;95138.31;5084352;28;20239;-59
2023/03/27 11:10:26;;;;;;;1999.90;999.90;;;;;;;6.33;100.00;95160.69;5084579;28;20169;-58